createdAt,value
2019-02-26T00:01:01.157Z,55.30
2019-02-26T00:03:28.548Z,59.27
2019-02-26T00:05:56.976Z,57.53
2019-02-26T00:08:26.827Z,61.97
2019-02-26T00:10:56.719Z,57.63
2019-02-26T00:13:23.369Z,61.53
2019-02-26T00:15:51.749Z,62.23
2019-02-26T00:18:19.581Z,60.10
2019-02-26T00:20:47.443Z,60.07
2019-02-26T00:23:14.286Z,59.67
2019-02-26T00:25:41.093Z,60.03
2019-02-26T00:28:07.907Z,58.03
2019-02-26T00:30:37.417Z,55.33
2019-02-26T00:33:05.258Z,57.73
2019-02-26T00:35:32.362Z,60.50
2019-02-26T00:37:59.245Z,58.73
2019-02-26T00:40:26.375Z,49.97
2019-02-26T00:42:56.474Z,58.07
2019-02-26T00:45:24.674Z,59.03
2019-02-26T00:47:50.658Z,54.00
2019-02-26T00:50:17.550Z,66.77
2019-02-26T00:52:44.519Z,61.57
2019-02-26T00:55:11.541Z,61.13
2019-02-26T00:57:40.486Z,62.53
2019-02-26T01:00:09.918Z,63.67
2019-02-26T01:02:38.172Z,61.80
2019-02-26T01:05:06.308Z,63.33
2019-02-26T01:07:34.124Z,61.87
2019-02-26T01:10:01.026Z,61.37
2019-02-26T01:12:27.830Z,62.63
2019-02-26T01:14:54.853Z,58.10
2019-02-26T01:17:21.658Z,58.47
2019-02-26T01:19:48.444Z,64.13
2019-02-26T01:22:15.305Z,63.13
2019-02-26T01:24:42.102Z,60.27
2019-02-26T01:27:08.925Z,61.87
2019-02-26T01:29:35.781Z,61.00
2019-02-26T01:32:02.798Z,64.57
2019-02-26T01:34:29.696Z,67.47
2019-02-26T01:36:56.678Z,61.17
2019-02-26T01:39:23.492Z,64.77
2019-02-26T01:41:51.167Z,69.90
2019-02-26T01:44:19.206Z,72.43
2019-02-26T01:46:46.106Z,72.63
2019-02-26T01:49:12.890Z,75.60
2019-02-26T01:51:39.814Z,77.40
2019-02-26T01:54:08.064Z,78.80
2019-02-26T01:56:36.493Z,81.73
2019-02-26T01:59:03.955Z,73.73
2019-02-26T02:01:30.777Z,69.33
2019-02-26T02:03:57.677Z,70.97
2019-02-26T02:06:24.625Z,71.80
2019-02-26T02:08:53.621Z,57.37
2019-02-26T02:11:23.430Z,77.97
2019-02-26T02:13:49.167Z,83.00
2019-02-26T02:16:15.972Z,80.73
2019-02-26T02:18:46.035Z,93.73
2019-02-26T02:21:11.698Z,90.40
2019-02-26T02:23:38.494Z,86.40
2019-02-26T02:26:07.130Z,95.00
2019-02-26T02:28:35.607Z,100.93
2019-02-26T02:31:03.039Z,90.13
2019-02-26T02:33:32.085Z,96.33
2019-02-26T02:35:58.686Z,108.70
2019-02-26T02:38:25.544Z,89.90
2019-02-26T02:40:54.765Z,97.47
2019-02-26T02:43:23.476Z,75.90
2019-02-26T02:45:52.938Z,90.57
2019-02-26T02:48:18.915Z,93.57
2019-02-26T02:50:45.854Z,92.37
2019-02-26T02:53:12.657Z,86.03
2019-02-26T02:55:40.257Z,101.50
2019-02-26T02:58:08.413Z,97.90
2019-02-26T03:00:35.501Z,100.37
2019-02-26T03:03:02.414Z,97.47
2019-02-26T03:05:31.560Z,118.63
2019-02-26T03:07:57.952Z,119.37
2019-02-26T03:10:28.460Z,133.90
2019-02-26T03:12:55.272Z,130.77
2019-02-26T03:15:24.586Z,123.73
2019-02-26T03:17:51.018Z,126.60
2019-02-26T03:20:17.852Z,135.80
2019-02-26T03:22:46.711Z,112.83
2019-02-26T03:25:14.898Z,103.50
2019-02-26T03:27:42.689Z,107.90
2019-02-26T03:30:20.508Z,119.27
2019-02-26T03:32:46.096Z,109.37
2019-02-26T03:35:13.212Z,125.67
2019-02-26T03:37:39.563Z,124.93
2019-02-26T03:40:08.261Z,121.73
2019-02-26T03:42:36.532Z,134.93
2019-02-26T03:45:05.109Z,126.67
2019-02-26T03:47:32.141Z,119.73
2019-02-26T03:49:59.053Z,127.93
2019-02-26T03:52:25.861Z,119.60
2019-02-26T03:54:52.981Z,124.80
2019-02-26T03:57:22.120Z,114.83
2019-02-26T03:59:48.741Z,111.63
2019-02-26T04:02:18.102Z,109.63
2019-02-26T04:04:45.858Z,109.50
2019-02-26T04:07:13.705Z,110.00
2019-02-26T04:09:44.033Z,108.77
2019-02-26T04:12:11.257Z,98.53
2019-02-26T04:14:38.272Z,109.60
2019-02-26T04:17:06.514Z,117.63
2019-02-26T04:19:33.927Z,93.30
2019-02-26T04:22:26.485Z,86.97
2019-02-26T04:24:59.706Z,89.23
2019-02-26T04:28:10.872Z,88.07
2019-02-26T04:31:25.268Z,92.97
2019-02-26T04:34:18.888Z,86.77
2019-02-26T04:37:02.492Z,79.90
2019-02-26T04:39:59.049Z,83.87
2019-02-26T04:43:01.867Z,80.60
2019-02-26T04:45:51.885Z,79.20
2019-02-26T04:48:23.652Z,96.57
2019-02-26T04:50:49.327Z,79.17
2019-02-26T04:53:16.206Z,82.60
2019-02-26T04:55:48.967Z,94.00
2019-02-26T04:58:18.213Z,79.70
2019-02-26T05:01:05.385Z,97.23
2019-02-26T05:03:33.189Z,79.87
2019-02-26T05:06:02.083Z,95.93
2019-02-26T05:08:30.035Z,102.53
2019-02-26T05:10:59.978Z,93.30
2019-02-26T05:13:27.486Z,104.30
2019-02-26T05:15:55.490Z,100.27
2019-02-26T05:18:23.232Z,107.43
2019-02-26T05:20:50.974Z,100.87
2019-02-26T05:23:17.811Z,105.97
2019-02-26T05:25:44.898Z,114.00
2019-02-26T05:28:14.112Z,119.13
2019-02-26T05:30:43.234Z,112.20
2019-02-26T05:33:09.573Z,100.00
2019-02-26T05:35:37.824Z,101.10
2019-02-26T05:38:06.714Z,103.47
2019-02-26T05:40:37.471Z,100.27
2019-02-26T05:43:04.679Z,98.67
2019-02-26T05:45:35.428Z,103.63
2019-02-26T05:48:00.527Z,110.53
2019-02-26T05:50:29.568Z,104.47
2019-02-26T05:52:58.963Z,104.53
2019-02-26T05:55:25.642Z,104.77
2019-02-26T05:57:53.839Z,114.00
2019-02-26T06:00:24.803Z,90.90
2019-02-26T06:02:51.014Z,102.03
2019-02-26T06:05:20.401Z,97.87
2019-02-26T06:07:46.854Z,99.93
2019-02-26T06:10:13.759Z,111.03
2019-02-26T06:12:43.293Z,92.57
2019-02-26T06:15:09.507Z,88.97
2019-02-26T06:17:40.556Z,113.73
2019-02-26T06:20:17.317Z,104.17
2019-02-26T06:22:44.092Z,101.20
2019-02-26T06:25:17.605Z,88.63
2019-02-26T06:27:39.909Z,92.23
2019-02-26T06:30:11.543Z,105.27
2019-02-26T06:32:39.138Z,104.40
2019-02-26T06:35:08.516Z,84.93
2019-02-26T06:37:37.796Z,84.43
2019-02-26T06:40:07.443Z,95.77
2019-02-26T06:42:35.521Z,77.97
2019-02-26T06:45:05.939Z,78.70
2019-02-26T06:47:33.293Z,86.80
2019-02-26T06:50:00.256Z,69.27
2019-02-26T06:52:27.146Z,64.10
2019-02-26T06:54:56.361Z,59.00
2019-02-26T06:57:22.901Z,62.40
2019-02-26T06:59:50.999Z,63.73
2019-02-26T07:02:18.747Z,65.07
2019-02-26T07:04:45.687Z,72.27
2019-02-26T07:07:14.424Z,64.97
2019-02-26T07:09:41.952Z,60.77
2019-02-26T07:12:10.139Z,42.87
2019-02-26T07:14:36.923Z,50.77
2019-02-26T07:17:03.726Z,54.73
2019-02-26T07:19:32.702Z,53.37
2019-02-26T07:21:59.277Z,49.27
2019-02-26T07:24:27.167Z,42.40
2019-02-26T07:26:54.177Z,46.53
2019-02-26T07:29:21.062Z,48.30
2019-02-26T07:31:49.528Z,45.73
2019-02-26T07:34:18.242Z,44.97
2019-02-26T07:36:46.103Z,45.53
2019-02-26T07:39:15.515Z,43.83
2019-02-26T07:41:44.644Z,45.13
2019-02-26T07:44:15.526Z,43.33
2019-02-26T07:46:42.411Z,42.63
2019-02-26T07:49:09.394Z,44.33
2019-02-26T07:51:38.067Z,39.10
2019-02-26T07:54:04.924Z,40.80
2019-02-26T07:56:32.752Z,40.00
2019-02-26T07:59:03.792Z,39.63
2019-02-26T08:01:28.578Z,40.50
2019-02-26T08:03:55.494Z,36.40
2019-02-26T08:06:22.298Z,36.53
2019-02-26T08:08:49.089Z,36.73
2019-02-26T08:11:16.040Z,36.73
2019-02-26T08:13:42.854Z,33.90
2019-02-26T08:16:09.666Z,34.70
2019-02-26T08:18:36.785Z,35.00
2019-02-26T08:21:05.070Z,33.53
2019-02-26T08:23:32.077Z,34.30
2019-02-26T08:26:00.470Z,34.40
2019-02-26T08:28:27.607Z,31.10
2019-02-26T08:30:55.213Z,32.57
2019-02-26T08:33:23.262Z,34.27
2019-02-26T08:35:50.142Z,33.23
2019-02-26T08:38:17.061Z,31.10
2019-02-26T08:40:43.886Z,30.73
2019-02-26T08:43:10.682Z,30.13
2019-02-26T08:45:37.617Z,28.50
2019-02-26T08:48:04.675Z,30.03
2019-02-26T08:50:33.292Z,29.17
2019-02-26T08:53:00.338Z,26.47
2019-02-26T08:55:27.269Z,28.93
2019-02-26T08:57:56.383Z,28.10
2019-02-26T09:00:23.003Z,27.03
2019-02-26T09:02:53.771Z,25.03
2019-02-26T09:05:18.834Z,26.47
2019-02-26T09:07:47.502Z,25.37
2019-02-26T09:10:15.811Z,23.67
2019-02-26T09:12:45.598Z,23.37
2019-02-26T09:15:13.276Z,23.80
2019-02-26T09:17:42.078Z,23.70
2019-02-26T09:20:12.248Z,21.47
2019-02-26T09:22:43.211Z,21.97
2019-02-26T09:25:09.474Z,22.20
2019-02-26T09:27:42.512Z,20.90
2019-02-26T09:30:10.841Z,20.40
2019-02-26T09:32:38.027Z,21.83
2019-02-26T09:35:07.390Z,20.53
2019-02-26T09:37:34.207Z,20.97
2019-02-26T09:40:02.977Z,21.37
2019-02-26T09:42:30.548Z,19.80
2019-02-26T09:45:00.173Z,20.53
2019-02-26T09:47:32.855Z,19.53
2019-02-26T09:49:58.986Z,20.17
2019-02-26T09:52:32.683Z,18.90
2019-02-26T09:54:59.765Z,18.90
2019-02-26T09:57:28.235Z,20.03
2019-02-26T09:59:58.149Z,20.03
2019-02-26T10:02:24.685Z,18.83
2019-02-26T10:04:54.438Z,16.67
2019-02-26T10:07:21.439Z,17.83
2019-02-26T10:09:48.529Z,17.87
2019-02-26T10:12:17.151Z,19.33
2019-02-26T10:14:44.150Z,18.10
2019-02-26T10:17:12.230Z,18.17
2019-02-26T10:19:41.163Z,19.83
2019-02-26T10:22:10.816Z,19.77
2019-02-26T10:24:40.379Z,16.27
2019-02-26T10:27:08.710Z,17.63
2019-02-26T10:29:38.865Z,17.33
2019-02-26T10:32:04.069Z,17.50
2019-02-26T10:34:30.866Z,16.50
2019-02-26T10:36:57.866Z,17.03
2019-02-26T10:39:26.442Z,18.53
2019-02-26T10:41:53.714Z,20.17
2019-02-26T10:44:20.697Z,21.30
2019-02-26T10:46:47.775Z,20.07
2019-02-26T10:49:14.589Z,22.73
2019-02-26T10:51:42.636Z,20.30
2019-02-26T10:54:13.749Z,21.93
2019-02-26T10:56:41.956Z,21.00
2019-02-26T10:59:09.250Z,22.17
2019-02-26T11:01:36.966Z,21.57
2019-02-26T11:04:04.618Z,22.53
2019-02-26T11:06:33.728Z,21.73
2019-02-26T11:09:01.837Z,22.57
2019-02-26T11:11:30.517Z,22.63
2019-02-26T11:13:57.931Z,21.13
2019-02-26T11:16:25.884Z,21.57
2019-02-26T11:18:53.511Z,20.47
2019-02-26T11:21:20.550Z,21.57
2019-02-26T11:23:47.597Z,20.50
2019-02-26T11:26:15.466Z,22.03
2019-02-26T11:28:45.402Z,22.97
2019-02-26T11:31:13.998Z,24.17
2019-02-26T11:33:40.741Z,24.17
2019-02-26T11:36:08.900Z,21.10
2019-02-26T11:38:39.077Z,20.20
2019-02-26T11:41:05.338Z,19.00
2019-02-26T11:43:32.175Z,18.80
2019-02-26T11:46:01.377Z,18.97
2019-02-26T11:48:30.755Z,18.30
2019-02-26T11:51:00.819Z,18.63
2019-02-26T11:53:29.623Z,17.50
2019-02-26T11:55:55.006Z,18.37
2019-02-26T11:58:24.260Z,19.13
2019-02-26T12:00:54.226Z,18.00
2019-02-26T12:03:24.975Z,19.53
2019-02-26T12:05:50.145Z,19.83
2019-02-26T12:08:19.602Z,21.97
2019-02-26T12:10:46.203Z,21.13
2019-02-26T12:13:14.703Z,21.77
2019-02-26T12:15:42.849Z,21.20
2019-02-26T12:18:12.304Z,21.63
2019-02-26T12:20:40.946Z,20.87
2019-02-26T12:23:07.955Z,23.40
2019-02-26T12:25:35.658Z,22.43
2019-02-26T12:28:03.696Z,22.40
2019-02-26T12:30:32.355Z,23.37
2019-02-26T12:33:00.514Z,24.63
2019-02-26T12:35:29.681Z,24.93
2019-02-26T12:37:59.376Z,23.83
2019-02-26T12:40:25.553Z,23.23
2019-02-26T12:42:52.741Z,25.17
2019-02-26T12:45:20.022Z,23.33
2019-02-26T12:47:49.343Z,24.10
2019-02-26T12:50:16.151Z,23.70
2019-02-26T12:52:44.800Z,24.60
2019-02-26T12:55:12.599Z,23.63
2019-02-26T12:57:39.622Z,23.83
2019-02-26T13:00:13.262Z,23.17
2019-02-26T13:02:43.323Z,24.83
2019-02-26T13:05:11.469Z,23.57
2019-02-26T13:07:38.946Z,25.27
2019-02-26T13:10:08.505Z,25.00
2019-02-26T13:12:35.422Z,25.43
2019-02-26T13:15:05.757Z,23.60
2019-02-26T13:17:32.368Z,22.17
2019-02-26T13:20:01.666Z,22.40
2019-02-26T13:22:28.455Z,22.63
2019-02-26T13:24:55.270Z,23.13
2019-02-26T13:27:22.094Z,23.93
2019-02-26T13:29:54.556Z,23.50
2019-02-26T13:32:21.038Z,23.30
2019-02-26T13:34:46.618Z,24.20
2019-02-26T13:37:13.685Z,26.13
2019-02-26T13:39:41.366Z,25.47
2019-02-26T13:42:13.732Z,25.93
2019-02-26T13:44:38.447Z,26.77
2019-02-26T13:47:05.482Z,26.20
2019-02-26T13:49:32.318Z,26.83
2019-02-26T13:51:59.277Z,23.67
2019-02-26T13:54:26.115Z,25.87
2019-02-26T13:56:53.023Z,26.97
2019-02-26T13:59:20.140Z,25.13
2019-02-26T14:01:47.265Z,24.23
2019-02-26T14:04:14.095Z,25.73
2019-02-26T14:06:41.086Z,25.20
2019-02-26T14:09:08.015Z,25.10
2019-02-26T14:11:34.942Z,24.23
2019-02-26T14:14:02.023Z,23.80
2019-02-26T14:16:32.527Z,23.30
2019-02-26T14:18:57.641Z,22.17
2019-02-26T14:21:24.593Z,22.77
2019-02-26T14:23:51.649Z,22.20
2019-02-26T14:26:18.746Z,21.23
2019-02-26T14:28:45.713Z,21.27
2019-02-26T14:31:12.525Z,21.53
2019-02-26T14:33:39.446Z,22.23
2019-02-26T14:36:06.396Z,20.53
2019-02-26T14:38:33.590Z,21.03
2019-02-26T14:41:02.262Z,20.90
2019-02-26T14:43:29.323Z,20.37
2019-02-26T14:45:56.551Z,19.73
2019-02-26T14:48:23.358Z,21.63
2019-02-26T14:50:50.392Z,21.37
2019-02-26T14:53:20.171Z,19.90
2019-02-26T14:55:46.987Z,19.37
2019-02-26T14:58:13.825Z,19.27
2019-02-26T15:00:41.071Z,20.23
2019-02-26T15:03:07.888Z,17.70
2019-02-26T15:05:34.949Z,18.57
2019-02-26T15:08:01.763Z,16.83
2019-02-26T15:10:28.582Z,17.03
2019-02-26T15:12:55.800Z,17.40
2019-02-26T15:15:22.964Z,16.83
2019-02-26T15:17:49.870Z,16.87
2019-02-26T15:20:16.996Z,16.63
2019-02-26T15:22:44.031Z,18.07
2019-02-26T15:25:14.070Z,19.47
2019-02-26T15:27:40.907Z,20.87
2019-02-26T15:30:09.282Z,24.13
2019-02-26T15:32:36.098Z,23.20
2019-02-26T15:35:03.609Z,24.37
2019-02-26T15:37:30.658Z,24.53
2019-02-26T15:39:57.686Z,25.53
2019-02-26T15:42:24.779Z,25.47
2019-02-26T15:44:51.825Z,26.57
2019-02-26T15:47:24.059Z,26.17
2019-02-26T15:49:51.036Z,26.33
2019-02-26T15:52:21.547Z,26.83
2019-02-26T15:54:50.049Z,27.23
2019-02-26T15:57:16.990Z,28.30
2019-02-26T15:59:45.427Z,28.00
2019-02-26T16:02:12.464Z,28.17
2019-02-26T16:04:39.817Z,27.10
2019-02-26T16:07:06.650Z,28.00
2019-02-26T16:09:36.834Z,26.67
2019-02-26T16:12:05.788Z,27.73
2019-02-26T16:14:32.931Z,28.10
2019-02-26T16:17:23.252Z,26.63
2019-02-26T16:19:50.988Z,28.40
2019-02-26T16:22:18.163Z,30.07
2019-02-26T16:24:45.229Z,29.47
2019-02-26T16:27:13.095Z,29.00
2019-02-26T16:29:40.127Z,28.63
2019-02-26T16:32:07.136Z,29.13
2019-02-26T16:34:35.122Z,30.23
2019-02-26T16:37:03.247Z,28.83
2019-02-26T16:39:31.148Z,28.13
2019-02-26T16:42:06.681Z,30.67
2019-02-26T16:44:33.944Z,30.27
2019-02-26T16:47:00.983Z,29.67
2019-02-26T16:49:28.407Z,31.63
2019-02-26T16:51:55.666Z,29.87
2019-02-26T16:54:23.593Z,28.27
2019-02-26T16:56:54.513Z,29.80
2019-02-26T16:59:19.869Z,26.63
2019-02-26T17:01:46.976Z,27.97
2019-02-26T17:04:13.882Z,28.00
2019-02-26T17:06:40.826Z,27.10
2019-02-26T17:09:08.649Z,29.30
2019-02-26T17:11:38.358Z,30.30
2019-02-26T17:14:09.947Z,30.53
2019-02-26T17:16:36.755Z,28.23
2019-02-26T17:19:03.899Z,32.63
2019-02-26T17:21:31.261Z,31.07
2019-02-26T17:23:58.149Z,31.97
2019-02-26T17:26:25.079Z,30.93
2019-02-26T17:28:51.917Z,30.13
2019-02-26T17:31:18.829Z,35.73
2019-02-26T17:33:46.723Z,36.80
2019-02-26T17:36:14.174Z,37.53
2019-02-26T17:38:41.092Z,35.80
2019-02-26T17:41:09.909Z,34.13
2019-02-26T17:43:37.054Z,35.30
2019-02-26T17:46:04.054Z,35.33
2019-02-26T17:48:31.248Z,40.80
2019-02-26T17:50:58.902Z,41.00
2019-02-26T17:53:27.720Z,43.07
2019-02-26T17:55:54.435Z,41.27
2019-02-26T17:58:21.286Z,41.37
2019-02-26T18:00:52.322Z,38.57
2019-02-26T18:03:19.251Z,36.63
2019-02-26T18:05:51.177Z,36.77
2019-02-26T18:08:18.838Z,37.53
2019-02-26T18:10:43.821Z,39.57
2019-02-26T18:13:10.869Z,39.97
2019-02-26T18:15:37.684Z,43.77
2019-02-26T18:18:04.710Z,38.30
2019-02-26T18:20:31.672Z,35.30
2019-02-26T18:23:00.162Z,35.57
2019-02-26T18:25:27.291Z,39.33
2019-02-26T18:27:54.138Z,36.23
2019-02-26T18:30:21.780Z,38.50
2019-02-26T18:32:54.872Z,35.80
2019-02-26T18:35:19.538Z,36.87
2019-02-26T18:37:46.715Z,39.17
2019-02-26T18:40:14.041Z,39.43
2019-02-26T18:42:41.412Z,42.60
2019-02-26T18:45:11.783Z,43.90
2019-02-26T18:47:42.250Z,43.67
2019-02-26T18:50:07.830Z,50.53
2019-02-26T18:52:35.137Z,50.77
2019-02-26T18:55:02.269Z,51.17
2019-02-26T18:57:29.136Z,49.33
2019-02-26T18:59:55.979Z,52.40
2019-02-26T19:02:22.994Z,54.67
2019-02-26T19:04:50.077Z,57.07
2019-02-26T19:07:17.294Z,56.70
2019-02-26T19:09:45.566Z,53.93
2019-02-26T19:12:12.802Z,52.17
2019-02-26T19:14:42.251Z,49.63
2019-02-26T19:17:08.795Z,49.07
2019-02-26T19:19:35.782Z,48.70
2019-02-26T19:22:02.710Z,48.67
2019-02-26T19:24:29.642Z,48.13
2019-02-26T19:26:56.502Z,50.20
2019-02-26T19:29:23.329Z,47.07
2019-02-26T19:31:50.247Z,48.00
2019-02-26T19:34:17.282Z,43.30
2019-02-26T19:36:45.898Z,41.97
2019-02-26T19:39:13.217Z,44.57
2019-02-26T19:41:40.351Z,47.33
2019-02-26T19:44:07.438Z,49.37
2019-02-26T19:46:35.569Z,48.00
2019-02-26T19:49:05.576Z,46.10
2019-02-26T19:51:31.755Z,47.87
2019-02-26T19:53:58.837Z,47.50
2019-02-26T19:56:25.830Z,53.83
2019-02-26T19:58:52.972Z,57.87
2019-02-26T20:01:25.481Z,65.47
2019-02-26T20:03:51.134Z,65.60
2019-02-26T20:06:18.768Z,68.20
2019-02-26T20:08:47.277Z,71.00
2019-02-26T20:11:14.722Z,65.03
2019-02-26T20:13:42.202Z,67.53
2019-02-26T20:16:09.806Z,67.23
2019-02-26T20:18:36.906Z,67.43
2019-02-26T20:21:03.887Z,71.57
2019-02-26T20:23:30.750Z,74.93
2019-02-26T20:25:57.631Z,72.70
2019-02-26T20:28:24.537Z,76.03
2019-02-26T20:30:51.560Z,74.83
2019-02-26T20:33:18.550Z,75.43
2019-02-26T20:35:45.930Z,72.73
2019-02-26T20:38:12.979Z,76.07
2019-02-26T20:40:40.016Z,73.57
2019-02-26T20:43:06.858Z,70.90
2019-02-26T20:45:33.969Z,71.37
2019-02-26T20:48:03.821Z,70.10
2019-02-26T20:50:29.576Z,72.43
2019-02-26T20:52:56.390Z,72.10
2019-02-26T20:55:23.378Z,73.70
2019-02-26T20:57:50.270Z,77.13
2019-02-26T21:00:17.856Z,72.33
2019-02-26T21:02:44.922Z,71.70
2019-02-26T21:05:12.440Z,70.00
2019-02-26T21:07:39.633Z,67.20
2019-02-26T21:10:07.370Z,66.23
2019-02-26T21:12:34.836Z,66.60
2019-02-26T21:15:01.814Z,66.30
2019-02-26T21:17:28.762Z,68.83
2019-02-26T21:19:55.694Z,72.47
2019-02-26T21:22:22.782Z,73.03
2019-02-26T21:24:49.861Z,75.43
2019-02-26T21:27:16.647Z,76.37
2019-02-26T21:29:43.561Z,78.47
2019-02-26T21:32:10.772Z,76.27
2019-02-26T21:34:37.850Z,78.60
2019-02-26T21:37:05.305Z,82.67
2019-02-26T21:39:34.042Z,81.43
2019-02-26T21:42:00.952Z,83.70
2019-02-26T21:44:27.766Z,91.87
2019-02-26T21:46:56.184Z,92.70
2019-02-26T21:49:28.493Z,99.67
2019-02-26T21:51:56.433Z,94.87
2019-02-26T21:54:27.764Z,103.83
2019-02-26T21:56:55.201Z,111.30
2019-02-26T21:59:22.684Z,95.03
2019-02-26T22:01:49.702Z,98.23
2019-02-26T22:04:16.493Z,95.93
2019-02-26T22:06:44.850Z,101.47
2019-02-26T22:09:12.398Z,106.50
2019-02-26T22:11:39.363Z,107.70
2019-02-26T22:14:06.385Z,105.10
2019-02-26T22:16:33.484Z,102.10
2019-02-26T22:19:00.294Z,103.13
2019-02-26T22:21:27.214Z,101.23
2019-02-26T22:23:54.053Z,106.33
2019-02-26T22:26:20.916Z,105.30
2019-02-26T22:28:48.012Z,103.93
2019-02-26T22:31:15.305Z,107.37
2019-02-26T22:33:43.190Z,100.53
2019-02-26T22:36:11.485Z,102.50
2019-02-26T22:38:38.596Z,95.83
2019-02-26T22:41:05.838Z,99.17
2019-02-26T22:43:32.914Z,101.93
2019-02-26T22:46:01.144Z,94.33
2019-02-26T22:48:28.817Z,95.43
2019-02-26T22:50:59.517Z,95.50
2019-02-26T22:53:24.761Z,92.33
2019-02-26T22:55:51.897Z,87.33
2019-02-26T22:58:18.736Z,88.80
2019-02-26T23:00:58.721Z,93.57
2019-02-26T23:03:25.831Z,91.97
2019-02-26T23:05:52.879Z,92.37
2019-02-26T23:08:19.947Z,95.07
2019-02-26T23:10:46.994Z,90.90
2019-02-26T23:13:15.248Z,88.93
2019-02-26T23:15:45.156Z,92.60
2019-02-26T23:18:11.961Z,86.60
2019-02-26T23:20:42.499Z,97.37
2019-02-26T23:23:07.991Z,94.70
2019-02-26T23:25:36.043Z,92.57
2019-02-26T23:28:04.037Z,96.53
2019-02-26T23:30:31.201Z,97.13
2019-02-26T23:32:58.803Z,98.00
2019-02-26T23:35:26.114Z,96.83
2019-02-26T23:37:53.622Z,100.77
2019-02-26T23:40:20.517Z,98.93
2019-02-26T23:42:47.933Z,100.67
2019-02-26T23:45:15.201Z,103.73
2019-02-26T23:47:42.354Z,104.17
2019-02-26T23:50:09.372Z,102.93
2019-02-26T23:52:36.434Z,105.17
2019-02-26T23:55:03.439Z,107.73
2019-02-26T23:57:30.354Z,114.27
2019-02-26T23:59:57.327Z,115.03
